sensor_id;sensor_type;location;lat;lon;timestamp;P1;durP1;ratioP1;P2;durP2;ratioP2
9264;SDS011;4669;49.594;10.958;2023-12-22T05:26:40;3.70;;;0.93;;
9264;SDS011;4669;49.594;10.958;2023-12-22T05:31:42;1.10;;;0.60;;
9264;SDS011;4669;49.594;10.958;2023-12-22T05:36:44;2.03;;;0.55;;
9264;SDS011;4669;49.594;10.958;2023-12-22T05:41:47;3.42;;;1.00;;
9264;SDS011;4669;49.594;10.958;2023-12-22T05:46:49;2.55;;;0.90;;
9264;SDS011;4669;49.594;10.958;2023-12-22T05:51:51;2.17;;;0.90;;
9264;SDS011;4669;49.594;10.958;2023-12-22T05:56:55;2.92;;;1.05;;
9264;SDS011;4669;49.594;10.958;2023-12-22T06:01:57;2.35;;;0.80;;
9264;SDS011;4669;49.594;10.958;2023-12-22T06:07:00;3.78;;;0.90;;
9264;SDS011;4669;49.594;10.958;2023-12-22T06:12:03;3.97;;;0.90;;
9264;SDS011;4669;49.594;10.958;2023-12-22T06:17:06;3.67;;;1.00;;
9264;SDS011;4669;49.594;10.958;2023-12-22T06:22:08;1.95;;;0.80;;
9264;SDS011;4669;49.594;10.958;2023-12-22T06:27:11;4.32;;;1.50;;
9264;SDS011;4669;49.594;10.958;2023-12-22T06:32:14;2.45;;;0.85;;
9264;SDS011;4669;49.594;10.958;2023-12-22T06:37:17;2.42;;;0.80;;
9264;SDS011;4669;49.594;10.958;2023-12-22T06:42:20;2.38;;;0.50;;
9264;SDS011;4669;49.594;10.958;2023-12-22T06:47:22;0.73;;;0.45;;
9264;SDS011;4669;49.594;10.958;2023-12-22T06:52:25;1.48;;;0.88;;
9264;SDS011;4669;49.594;10.958;2023-12-22T06:57:29;0.95;;;0.60;;
9264;SDS011;4669;49.594;10.958;2023-12-22T07:02:31;1.15;;;1.02;;
9264;SDS011;4669;49.594;10.958;2023-12-22T07:07:33;1.17;;;0.60;;
9264;SDS011;4669;49.594;10.958;2023-12-22T07:12:36;2.22;;;1.23;;
9264;SDS011;4669;49.594;10.958;2023-12-22T07:17:39;2.00;;;1.13;;
9264;SDS011;4669;49.594;10.958;2023-12-22T07:22:44;3.63;;;1.10;;
9264;SDS011;4669;49.594;10.958;2023-12-22T07:27:47;4.82;;;1.33;;
9264;SDS011;4669;49.594;10.958;2023-12-22T07:32:49;7.40;;;3.40;;
9264;SDS011;4669;49.594;10.958;2023-12-22T07:37:52;2.72;;;1.42;;
9264;SDS011;4669;49.594;10.958;2023-12-22T07:42:56;3.42;;;1.40;;
9264;SDS011;4669;49.594;10.958;2023-12-22T07:47:58;4.28;;;1.50;;
9264;SDS011;4669;49.594;10.958;2023-12-22T07:53:00;2.53;;;1.50;;
9264;SDS011;4669;49.594;10.958;2023-12-22T07:58:03;4.85;;;1.42;;
9264;SDS011;4669;49.594;10.958;2023-12-22T08:03:05;5.72;;;1.65;;
9264;SDS011;4669;49.594;10.958;2023-12-22T08:08:07;9.77;;;2.80;;
9264;SDS011;4669;49.594;10.958;2023-12-22T08:13:11;2.92;;;1.60;;
9264;SDS011;4669;49.594;10.958;2023-12-22T08:18:13;3.35;;;1.50;;
9264;SDS011;4669;49.594;10.958;2023-12-22T08:23:15;4.75;;;1.25;;
9264;SDS011;4669;49.594;10.958;2023-12-22T08:28:18;6.43;;;2.28;;
9264;SDS011;4669;49.594;10.958;2023-12-22T08:33:20;2.17;;;1.10;;
9264;SDS011;4669;49.594;10.958;2023-12-22T08:38:22;5.40;;;1.40;;
9264;SDS011;4669;49.594;10.958;2023-12-22T08:43:25;4.82;;;1.42;;
9264;SDS011;4669;49.594;10.958;2023-12-22T08:48:27;4.60;;;1.90;;
9264;SDS011;4669;49.594;10.958;2023-12-22T08:53:29;3.53;;;1.83;;
9264;SDS011;4669;49.594;10.958;2023-12-22T08:58:35;3.25;;;1.33;;
9264;SDS011;4669;49.594;10.958;2023-12-22T09:03:37;4.78;;;1.30;;
9264;SDS011;4669;49.594;10.958;2023-12-22T09:08:44;4.82;;;1.20;;
9264;SDS011;4669;49.594;10.958;2023-12-22T09:13:48;3.22;;;1.45;;
9264;SDS011;4669;49.594;10.958;2023-12-22T09:18:50;4.97;;;1.50;;
9264;SDS011;4669;49.594;10.958;2023-12-22T09:23:52;4.57;;;1.58;;
9264;SDS011;4669;49.594;10.958;2023-12-22T09:28:56;3.00;;;1.27;;
9264;SDS011;4669;49.594;10.958;2023-12-22T09:33:58;9.68;;;2.15;;
9264;SDS011;4669;49.594;10.958;2023-12-22T09:39:00;4.72;;;2.25;;
9264;SDS011;4669;49.594;10.958;2023-12-22T09:44:03;4.45;;;2.03;;
9264;SDS011;4669;49.594;10.958;2023-12-22T09:49:07;5.78;;;1.98;;
9264;SDS011;4669;49.594;10.958;2023-12-22T09:54:10;8.60;;;1.38;;
9264;SDS011;4669;49.594;10.958;2023-12-22T09:59:14;6.10;;;1.73;;
9264;SDS011;4669;49.594;10.958;2023-12-22T10:04:18;3.92;;;1.20;;
9264;SDS011;4669;49.594;10.958;2023-12-22T10:09:20;7.50;;;1.80;;
9264;SDS011;4669;49.594;10.958;2023-12-22T10:14:24;4.70;;;1.80;;
9264;SDS011;4669;49.594;10.958;2023-12-22T10:19:27;3.90;;;1.00;;
9264;SDS011;4669;49.594;10.958;2023-12-22T10:24:38;4.90;;;1.10;;
9264;SDS011;4669;49.594;10.958;2023-12-22T10:29:43;6.43;;;1.30;;
9264;SDS011;4669;49.594;10.958;2023-12-22T10:34:45;1.63;;;1.10;;
9264;SDS011;4669;49.594;10.958;2023-12-22T10:39:47;4.72;;;1.30;;
9264;SDS011;4669;49.594;10.958;2023-12-22T10:44:54;3.67;;;1.20;;
9264;SDS011;4669;49.594;10.958;2023-12-22T10:50:01;1.98;;;0.80;;
9264;SDS011;4669;49.594;10.958;2023-12-22T10:55:04;5.78;;;1.40;;
9264;SDS011;4669;49.594;10.958;2023-12-22T11:00:09;5.40;;;1.48;;
9264;SDS011;4669;49.594;10.958;2023-12-22T11:05:16;3.60;;;1.42;;
9264;SDS011;4669;49.594;10.958;2023-12-22T11:10:22;4.30;;;1.55;;
9264;SDS011;4669;49.594;10.958;2023-12-22T11:15:26;4.85;;;1.50;;
9264;SDS011;4669;49.594;10.958;2023-12-22T11:20:30;5.70;;;1.33;;
9264;SDS011;4669;49.594;10.958;2023-12-22T11:25:33;3.17;;;1.08;;
9264;SDS011;4669;49.594;10.958;2023-12-22T11:30:38;4.03;;;0.90;;
9264;SDS011;4669;49.594;10.958;2023-12-22T11:35:40;2.47;;;1.13;;
9264;SDS011;4669;49.594;10.958;2023-12-22T11:40:43;1.08;;;0.70;;
9264;SDS011;4669;49.594;10.958;2023-12-22T11:45:49;2.83;;;0.93;;
9264;SDS011;4669;49.594;10.958;2023-12-22T11:50:51;4.43;;;1.20;;
9264;SDS011;4669;49.594;10.958;2023-12-22T11:55:56;2.83;;;1.23;;
9264;SDS011;4669;49.594;10.958;2023-12-22T12:01:02;5.82;;;1.40;;
9264;SDS011;4669;49.594;10.958;2023-12-22T12:06:16;2.17;;;1.27;;
9264;SDS011;4669;49.594;10.958;2023-12-22T12:11:23;3.20;;;1.38;;
9264;SDS011;4669;49.594;10.958;2023-12-22T12:16:48;5.18;;;1.70;;
9264;SDS011;4669;49.594;10.958;2023-12-22T12:21:50;7.22;;;2.22;;
9264;SDS011;4669;49.594;10.958;2023-12-22T12:26:52;4.45;;;1.60;;
9264;SDS011;4669;49.594;10.958;2023-12-22T12:31:55;4.82;;;1.90;;
9264;SDS011;4669;49.594;10.958;2023-12-22T12:37:04;8.38;;;1.98;;
9264;SDS011;4669;49.594;10.958;2023-12-22T12:42:07;7.72;;;2.35;;
9264;SDS011;4669;49.594;10.958;2023-12-22T12:47:13;9.18;;;2.80;;
9264;SDS011;4669;49.594;10.958;2023-12-22T12:52:16;9.15;;;2.83;;
9264;SDS011;4669;49.594;10.958;2023-12-22T12:57:19;11.25;;;2.63;;
9264;SDS011;4669;49.594;10.958;2023-12-22T13:02:23;13.60;;;2.85;;
9264;SDS011;4669;49.594;10.958;2023-12-22T13:07:25;15.02;;;2.85;;
9264;SDS011;4669;49.594;10.958;2023-12-22T13:12:27;11.50;;;3.05;;
9264;SDS011;4669;49.594;10.958;2023-12-22T13:17:31;11.43;;;2.60;;
9264;SDS011;4669;49.594;10.958;2023-12-22T13:22:33;13.88;;;2.90;;
9264;SDS011;4669;49.594;10.958;2023-12-22T13:27:43;9.70;;;2.55;;
9264;SDS011;4669;49.594;10.958;2023-12-22T13:32:53;12.68;;;3.05;;
9264;SDS011;4669;49.594;10.958;2023-12-22T13:37:55;8.23;;;2.75;;
9264;SDS011;4669;49.594;10.958;2023-12-22T13:42:57;14.27;;;3.03;;
9264;SDS011;4669;49.594;10.958;2023-12-22T13:48:04;8.52;;;2.65;;
9264;SDS011;4669;49.594;10.958;2023-12-22T13:53:09;8.48;;;2.40;;
9264;SDS011;4669;49.594;10.958;2023-12-22T13:58:12;7.97;;;1.70;;
9264;SDS011;4669;49.594;10.958;2023-12-22T14:03:16;4.50;;;2.05;;
9264;SDS011;4669;49.594;10.958;2023-12-22T14:08:21;6.65;;;1.63;;
9264;SDS011;4669;49.594;10.958;2023-12-22T14:13:24;8.07;;;1.95;;
9264;SDS011;4669;49.594;10.958;2023-12-22T14:18:29;4.55;;;1.60;;
9264;SDS011;4669;49.594;10.958;2023-12-22T14:23:31;6.55;;;1.73;;
9264;SDS011;4669;49.594;10.958;2023-12-22T14:28:33;7.80;;;2.25;;
9264;SDS011;4669;49.594;10.958;2023-12-22T14:33:36;6.82;;;1.50;;
9264;SDS011;4669;49.594;10.958;2023-12-22T14:38:38;3.80;;;1.30;;
9264;SDS011;4669;49.594;10.958;2023-12-22T14:43:40;3.08;;;1.23;;
9264;SDS011;4669;49.594;10.958;2023-12-22T14:48:44;2.67;;;1.42;;
9264;SDS011;4669;49.594;10.958;2023-12-22T14:53:52;3.63;;;1.08;;
9264;SDS011;4669;49.594;10.958;2023-12-22T14:58:55;3.97;;;0.93;;
9264;SDS011;4669;49.594;10.958;2023-12-22T15:03:58;2.78;;;0.95;;
9264;SDS011;4669;49.594;10.958;2023-12-22T15:09:02;2.95;;;1.13;;
9264;SDS011;4669;49.594;10.958;2023-12-22T15:14:05;1.98;;;0.93;;
9264;SDS011;4669;49.594;10.958;2023-12-22T15:19:09;0.65;;;0.65;;
9264;SDS011;4669;49.594;10.958;2023-12-22T15:24:11;2.50;;;1.02;;
9264;SDS011;4669;49.594;10.958;2023-12-22T15:29:13;0.70;;;0.70;;
9264;SDS011;4669;49.594;10.958;2023-12-22T15:34:17;0.93;;;0.85;;
9264;SDS011;4669;49.594;10.958;2023-12-22T15:39:19;1.77;;;0.80;;
9264;SDS011;4669;49.594;10.958;2023-12-22T15:44:24;1.48;;;0.80;;
9264;SDS011;4669;49.594;10.958;2023-12-22T15:49:40;1.30;;;0.70;;
9264;SDS011;4669;49.594;10.958;2023-12-22T15:54:51;0.60;;;0.60;;
9264;SDS011;4669;49.594;10.958;2023-12-22T15:59:55;1.25;;;0.75;;
9264;SDS011;4669;49.594;10.958;2023-12-22T16:04:59;1.65;;;0.70;;
9264;SDS011;4669;49.594;10.958;2023-12-22T16:10:01;1.50;;;1.05;;
9264;SDS011;4669;49.594;10.958;2023-12-22T16:15:03;1.42;;;0.80;;
9264;SDS011;4669;49.594;10.958;2023-12-22T16:20:11;0.70;;;0.63;;
9264;SDS011;4669;49.594;10.958;2023-12-22T16:25:13;0.68;;;0.60;;
9264;SDS011;4669;49.594;10.958;2023-12-22T16:30:15;1.05;;;0.52;;
9264;SDS011;4669;49.594;10.958;2023-12-22T16:35:19;0.68;;;0.68;;
9264;SDS011;4669;49.594;10.958;2023-12-22T16:40:22;0.93;;;0.52;;
9264;SDS011;4669;49.594;10.958;2023-12-22T16:45:24;1.40;;;0.68;;
9264;SDS011;4669;49.594;10.958;2023-12-22T16:50:27;0.95;;;0.70;;
9264;SDS011;4669;49.594;10.958;2023-12-22T16:55:29;0.88;;;0.82;;
9264;SDS011;4669;49.594;10.958;2023-12-22T17:00:31;1.88;;;1.10;;
9264;SDS011;4669;49.594;10.958;2023-12-22T17:05:35;1.75;;;0.90;;
9264;SDS011;4669;49.594;10.958;2023-12-22T17:10:41;1.33;;;1.17;;
9264;SDS011;4669;49.594;10.958;2023-12-22T17:15:43;1.38;;;0.90;;
9264;SDS011;4669;49.594;10.958;2023-12-22T17:20:47;1.02;;;1.00;;
9264;SDS011;4669;49.594;10.958;2023-12-22T17:25:49;1.73;;;1.13;;
9264;SDS011;4669;49.594;10.958;2023-12-22T17:30:52;1.42;;;1.15;;
9264;SDS011;4669;49.594;10.958;2023-12-22T17:35:56;2.83;;;0.90;;
9264;SDS011;4669;49.594;10.958;2023-12-22T17:40:58;0.93;;;0.85;;
9264;SDS011;4669;49.594;10.958;2023-12-22T17:46:00;1.77;;;0.98;;
9264;SDS011;4669;49.594;10.958;2023-12-22T17:51:03;1.60;;;0.90;;
9264;SDS011;4669;49.594;10.958;2023-12-22T17:56:05;1.60;;;0.73;;
9264;SDS011;4669;49.594;10.958;2023-12-22T18:01:08;1.20;;;0.75;;
9264;SDS011;4669;49.594;10.958;2023-12-22T18:06:11;0.95;;;0.73;;
9264;SDS011;4669;49.594;10.958;2023-12-22T18:11:18;2.03;;;1.17;;
9264;SDS011;4669;49.594;10.958;2023-12-22T18:16:20;1.00;;;0.60;;
9264;SDS011;4669;49.594;10.958;2023-12-22T18:21:23;1.95;;;0.77;;
9264;SDS011;4669;49.594;10.958;2023-12-22T18:26:25;0.73;;;0.73;;
9264;SDS011;4669;49.594;10.958;2023-12-22T18:31:27;0.85;;;0.60;;
9264;SDS011;4669;49.594;10.958;2023-12-22T18:36:31;1.23;;;1.00;;
9264;SDS011;4669;49.594;10.958;2023-12-22T18:41:33;3.30;;;0.73;;
9264;SDS011;4669;49.594;10.958;2023-12-22T18:46:35;1.30;;;1.02;;
9264;SDS011;4669;49.594;10.958;2023-12-22T18:51:38;0.68;;;0.60;;
9264;SDS011;4669;49.594;10.958;2023-12-22T18:56:40;0.52;;;0.52;;
9264;SDS011;4669;49.594;10.958;2023-12-22T19:01:42;1.05;;;0.80;;
9264;SDS011;4669;49.594;10.958;2023-12-22T19:06:45;1.30;;;0.60;;
9264;SDS011;4669;49.594;10.958;2023-12-22T19:11:47;1.17;;;1.02;;
9264;SDS011;4669;49.594;10.958;2023-12-22T19:16:49;1.92;;;0.80;;
9264;SDS011;4669;49.594;10.958;2023-12-22T19:21:53;1.08;;;1.05;;
9264;SDS011;4669;49.594;10.958;2023-12-22T19:26:55;1.73;;;0.70;;
9264;SDS011;4669;49.594;10.958;2023-12-22T19:31:57;1.13;;;0.68;;
9264;SDS011;4669;49.594;10.958;2023-12-22T19:37:00;1.38;;;0.55;;
9264;SDS011;4669;49.594;10.958;2023-12-22T19:42:02;1.08;;;0.80;;
9264;SDS011;4669;49.594;10.958;2023-12-22T19:47:05;0.63;;;0.63;;
9264;SDS011;4669;49.594;10.958;2023-12-22T19:52:09;1.40;;;0.77;;
9264;SDS011;4669;49.594;10.958;2023-12-22T19:57:11;1.33;;;0.70;;
9264;SDS011;4669;49.594;10.958;2023-12-22T20:02:13;0.60;;;0.60;;
9264;SDS011;4669;49.594;10.958;2023-12-22T20:07:16;3.83;;;0.68;;
9264;SDS011;4669;49.594;10.958;2023-12-22T20:12:18;1.25;;;0.52;;
9264;SDS011;4669;49.594;10.958;2023-12-22T20:17:21;1.75;;;0.60;;
9264;SDS011;4669;49.594;10.958;2023-12-22T20:22:25;0.80;;;0.80;;
9264;SDS011;4669;49.594;10.958;2023-12-22T20:27:31;0.50;;;0.50;;
9264;SDS011;4669;49.594;10.958;2023-12-22T20:32:33;1.15;;;0.70;;
9264;SDS011;4669;49.594;10.958;2023-12-22T20:37:36;0.68;;;0.68;;
9264;SDS011;4669;49.594;10.958;2023-12-22T20:42:38;1.52;;;1.00;;
9264;SDS011;4669;49.594;10.958;2023-12-22T20:47:40;1.48;;;0.85;;
9264;SDS011;4669;49.594;10.958;2023-12-22T20:52:45;2.08;;;0.70;;
9264;SDS011;4669;49.594;10.958;2023-12-22T20:57:49;0.60;;;0.60;;
9264;SDS011;4669;49.594;10.958;2023-12-22T21:02:51;0.82;;;0.40;;
9264;SDS011;4669;49.594;10.958;2023-12-22T21:07:55;0.85;;;0.60;;
9264;SDS011;4669;49.594;10.958;2023-12-22T21:12:57;0.98;;;0.50;;
9264;SDS011;4669;49.594;10.958;2023-12-22T21:17:59;0.75;;;0.75;;
9264;SDS011;4669;49.594;10.958;2023-12-22T21:23:02;1.10;;;0.50;;
9264;SDS011;4669;49.594;10.958;2023-12-22T21:28:05;2.15;;;0.50;;
9264;SDS011;4669;49.594;10.958;2023-12-22T21:33:07;1.02;;;0.50;;
9264;SDS011;4669;49.594;10.958;2023-12-22T21:38:11;0.80;;;0.65;;
9264;SDS011;4669;49.594;10.958;2023-12-22T21:43:13;1.85;;;0.60;;
9264;SDS011;4669;49.594;10.958;2023-12-22T21:48:15;2.15;;;0.98;;
9264;SDS011;4669;49.594;10.958;2023-12-22T21:53:20;0.82;;;0.55;;
9264;SDS011;4669;49.594;10.958;2023-12-22T21:58:22;2.35;;;0.85;;
9264;SDS011;4669;49.594;10.958;2023-12-22T22:03:24;3.67;;;0.80;;
9264;SDS011;4669;49.594;10.958;2023-12-22T22:08:27;2.50;;;0.90;;
9264;SDS011;4669;49.594;10.958;2023-12-22T22:13:29;0.65;;;0.65;;
9264;SDS011;4669;49.594;10.958;2023-12-22T22:18:31;0.90;;;0.80;;
9264;SDS011;4669;49.594;10.958;2023-12-22T22:23:35;0.65;;;0.52;;
9264;SDS011;4669;49.594;10.958;2023-12-22T22:28:37;1.08;;;0.70;;
9264;SDS011;4669;49.594;10.958;2023-12-22T22:33:39;1.75;;;0.70;;
9264;SDS011;4669;49.594;10.958;2023-12-22T22:38:47;2.00;;;0.75;;
9264;SDS011;4669;49.594;10.958;2023-12-22T22:43:49;1.85;;;0.85;;
9264;SDS011;4669;49.594;10.958;2023-12-22T22:48:51;0.95;;;0.73;;
9264;SDS011;4669;49.594;10.958;2023-12-22T22:53:54;1.33;;;0.90;;
9264;SDS011;4669;49.594;10.958;2023-12-22T22:58:56;0.98;;;0.75;;
9264;SDS011;4669;49.594;10.958;2023-12-22T23:03:58;6.07;;;1.25;;
9264;SDS011;4669;49.594;10.958;2023-12-22T23:09:02;3.35;;;1.38;;
9264;SDS011;4669;49.594;10.958;2023-12-22T23:14:04;3.97;;;0.75;;
9264;SDS011;4669;49.594;10.958;2023-12-22T23:19:06;1.77;;;0.80;;
9264;SDS011;4669;49.594;10.958;2023-12-22T23:24:10;2.95;;;0.90;;
9264;SDS011;4669;49.594;10.958;2023-12-22T23:29:11;1.30;;;0.77;;
9264;SDS011;4669;49.594;10.958;2023-12-22T23:34:13;3.47;;;0.80;;
9264;SDS011;4669;49.594;10.958;2023-12-22T23:39:18;4.05;;;1.00;;
9264;SDS011;4669;49.594;10.958;2023-12-22T23:44:19;2.95;;;1.17;;
9264;SDS011;4669;49.594;10.958;2023-12-22T23:49:21;4.55;;;1.23;;
9264;SDS011;4669;49.594;10.958;2023-12-22T23:54:25;2.15;;;1.05;;
9264;SDS011;4669;49.594;10.958;2023-12-22T23:59:27;3.10;;;1.30;;
